NORTHERN QUEENS  -  Air Quality Alert Air Quality Alert        SOUTHERN QUEENS  -  Air Quality Alert Air Quality Alert      

Active alerts

Northern Queens
  Details for Northern Queens Air Quality Alert
Southern Queens
  Details for Southern Queens Air Quality Alert


WXM80 ListenWXM80 Stop

You find our weather info also at:

UK Metoffice

WeatherCloud

Weather Underground

Northeastern Weather Network

AWEKAS

Citizen Weather Observer Program (CWOP)

HAMweather, WeatherForYou, PWS Weather


Weather Underground History page Text

Daily Summary for June 21, 2017 Units:  English    Metric   Both
« Previous Day
Next Day »
Daily Weekly Monthly Yearly Custom
  High: Low: Average:
Temperature: 89.2 °F 69.5 °F 77.5 °F
Dew Point: 68.1 °F 60.5 °F 64.6 °F
Humidity: 90 % 40 % 67 %
Wind Speed: 7.4 mph 0.0 mph 1.7 mph
Wind Gust: 16.1 mph - -
Wind:- - WSW
Pressure: 29.90 in 29.80 in -
Precipitation: 0.00 in    
Historical Graphs
 
 
Tabular Data for June 21, 2017
Time Temperature Dew Point Pressure Wind Wind Speed Wind Gust Humidity Rainfall Rate (Hourly)
00:04 69.7 °F 62.5 °F 29.90 in SW 0.5 mph 3.5 mph 78 % 0.00 in
00:09 69.9 °F 62.7 °F 29.89 in WSW 1.6 mph 4.6 mph 78 % 0.00 in
00:12 70.0 °F 62.8 °F 29.89 in WSW 0.6 mph 2.3 mph 78 % 0.00 in
00:17 70.2 °F 63.0 °F 29.89 in WSW 2.3 mph 3.5 mph 78 % 0.00 in
00:22 70.3 °F 63.5 °F 29.89 in SSW 0.8 mph 2.3 mph 79 % 0.00 in
00:27 70.4 °F 63.6 °F 29.89 in WSW 1.6 mph 3.5 mph 79 % 0.00 in
00:32 70.5 °F 63.7 °F 29.89 in SSW 1.2 mph 3.5 mph 79 % 0.00 in
00:37 70.5 °F 64.0 °F 29.89 in SSW 0.9 mph 3.5 mph 80 % 0.00 in
00:42 70.6 °F 64.1 °F 29.89 in SW 1.3 mph 4.0 mph 80 % 0.00 in
00:47 70.7 °F 64.2 °F 29.89 in WSW 1.7 mph 4.6 mph 80 % 0.00 in
00:53 70.8 °F 64.3 °F 29.89 in South 1.4 mph 6.9 mph 80 % 0.00 in
00:57 70.9 °F 64.4 °F 29.89 in SW 1.0 mph 3.5 mph 80 % 0.00 in
01:02 70.9 °F 64.4 °F 29.89 in WSW 1.4 mph 3.5 mph 80 % 0.00 in
01:08 71.0 °F 64.9 °F 29.89 in SW 2.8 mph 4.0 mph 81 % 0.00 in
01:13 71.1 °F 65.0 °F 29.88 in SW 0.3 mph 3.5 mph 81 % 0.00 in
01:18 71.1 °F 65.0 °F 29.88 in SW 0.8 mph 2.3 mph 81 % 0.00 in
01:23 71.2 °F 65.1 °F 29.88 in SW 1.0 mph 3.5 mph 81 % 0.00 in
01:28 71.2 °F 65.1 °F 29.88 in SW 0.4 mph 2.3 mph 81 % 0.00 in
01:33 71.2 °F 65.1 °F 29.88 in West 0.4 mph 2.3 mph 81 % 0.00 in
01:38 71.2 °F 65.1 °F 29.88 in Calm   3.5 mph 81 % 0.00 in
01:43 71.2 °F 65.1 °F 29.88 in SSW 0.2 mph 1.2 mph 81 % 0.00 in
01:48 71.2 °F 65.4 °F 29.88 in SW 0.4 mph 1.2 mph 82 % 0.00 in
01:53 71.2 °F 65.4 °F 29.88 in SSW 1.6 mph 2.3 mph 82 % 0.00 in
01:58 71.2 °F 65.4 °F 29.88 in SW 0.4 mph 1.2 mph 82 % 0.00 in
02:03 71.2 °F 65.8 °F 29.88 in WSW 3.0 mph 5.8 mph 83 % 0.00 in
02:08 71.2 °F 65.8 °F 29.88 in WSW 1.5 mph 3.5 mph 83 % 0.00 in
02:13 71.3 °F 66.2 °F 29.88 in SW 1.2 mph 3.5 mph 84 % 0.00 in
02:18 71.3 °F 66.2 °F 29.88 in WSW 0.9 mph 3.0 mph 84 % 0.00 in
02:23 71.3 °F 66.2 °F 29.87 in SW 1.0 mph 3.5 mph 84 % 0.00 in
02:28 71.4 °F 66.3 °F 29.88 in SSW 0.1 mph 6.9 mph 84 % 0.00 in
02:33 71.5 °F 66.4 °F 29.87 in SW 0.3 mph 3.5 mph 84 % 0.00 in
02:38 71.5 °F 66.8 °F 29.87 in WSW 0.5 mph 3.5 mph 85 % 0.00 in
02:43 71.6 °F 66.8 °F 29.87 in WSW 0.9 mph 2.3 mph 85 % 0.00 in
02:48 71.7 °F 66.9 °F 29.87 in Calm     85 % 0.00 in
02:53 71.7 °F 66.6 °F 29.87 in WSW 0.2 mph 1.2 mph 84 % 0.00 in
02:58 71.8 °F 66.7 °F 29.87 in WSW 0.4 mph 1.2 mph 84 % 0.00 in
03:03 71.8 °F 66.7 °F 29.87 in SW 0.2 mph 1.2 mph 84 % 0.00 in
03:08 71.8 °F 66.7 °F 29.87 in SW 0.7 mph 1.2 mph 84 % 0.00 in
03:13 71.8 °F 66.7 °F 29.87 in SW 0.2 mph 2.3 mph 84 % 0.00 in
03:15 71.8 °F 66.7 °F 29.87 in SW 1.5 mph 2.3 mph 84 % 0.00 in
03:20 71.8 °F 66.7 °F 29.86 in SW 0.5 mph 2.3 mph 84 % 0.00 in
03:25 71.8 °F 67.0 °F 29.86 in Calm     85 % 0.00 in
03:30 71.7 °F 66.9 °F 29.87 in WSW 0.1 mph 1.2 mph 85 % 0.00 in
03:35 71.7 °F 66.9 °F 29.86 in SW 0.2 mph 2.3 mph 85 % 0.00 in
03:40 71.7 °F 66.9 °F 29.86 in SW 0.2 mph 1.2 mph 85 % 0.00 in
03:45 71.6 °F 66.8 °F 29.86 in Calm     85 % 0.00 in
03:50 71.6 °F 66.8 °F 29.86 in Calm   1.0 mph 85 % 0.00 in
03:55 71.6 °F 66.8 °F 29.86 in Calm     85 % 0.00 in
04:00 71.5 °F 66.8 °F 29.86 in West 0.6 mph 2.0 mph 85 % 0.00 in
04:05 71.5 °F 66.8 °F 29.87 in West 0.1 mph 2.0 mph 85 % 0.00 in
04:10 71.4 °F 66.7 °F 29.87 in WSW 0.8 mph 3.5 mph 85 % 0.00 in
04:15 71.4 °F 67.0 °F 29.87 in SW 0.4 mph 3.5 mph 86 % 0.00 in
04:20 71.3 °F 66.9 °F 29.87 in Calm     86 % 0.00 in
04:25 71.3 °F 66.9 °F 29.87 in SW 0.4 mph 1.0 mph 86 % 0.00 in
04:30 71.3 °F 66.9 °F 29.87 in SW 0.2 mph 1.2 mph 86 % 0.00 in
04:35 71.2 °F 66.8 °F 29.87 in West 0.2 mph 2.3 mph 86 % 0.00 in
04:40 71.2 °F 66.8 °F 29.87 in West 0.8 mph 3.0 mph 86 % 0.00 in
04:45 71.2 °F 67.1 °F 29.87 in West 0.6 mph 1.2 mph 87 % 0.00 in
04:50 71.1 °F 67.0 °F 29.87 in Calm   1.0 mph 87 % 0.00 in
04:55 71.1 °F 67.0 °F 29.87 in Calm     87 % 0.00 in
05:00 71.0 °F 66.9 °F 29.87 in West 0.7 mph 3.0 mph 87 % 0.00 in
05:01 71.0 °F 66.9 °F 29.87 in West 1.2 mph 3.5 mph 87 % 0.00 in
05:06 71.0 °F 66.9 °F 29.88 in West 0.7 mph 3.0 mph 87 % 0.00 in
05:11 70.9 °F 66.8 °F 29.88 in Calm   1.2 mph 87 % 0.00 in
05:16 70.8 °F 66.7 °F 29.88 in West 0.3 mph 2.3 mph 87 % 0.00 in
05:21 70.7 °F 66.6 °F 29.88 in West 0.4 mph 2.3 mph 87 % 0.00 in
05:26 70.7 °F 66.6 °F 29.87 in Calm     87 % 0.00 in
05:31 70.5 °F 66.4 °F 29.88 in Calm     87 % 0.00 in
05:36 70.4 °F 66.3 °F 29.87 in Calm     87 % 0.00 in
05:41 70.3 °F 66.2 °F 29.87 in Calm     87 % 0.00 in
05:46 70.2 °F 66.1 °F 29.87 in Calm     87 % 0.00 in
05:51 70.1 °F 66.0 °F 29.88 in Calm     87 % 0.00 in
05:56 69.9 °F 66.2 °F 29.87 in Calm     88 % 0.00 in
06:01 69.8 °F 66.1 °F 29.88 in Calm     88 % 0.00 in
06:06 69.7 °F 66.0 °F 29.88 in Calm     88 % 0.00 in
06:11 69.6 °F 65.9 °F 29.88 in Calm     88 % 0.00 in
06:16 69.6 °F 65.9 °F 29.88 in Calm     88 % 0.00 in
06:22 69.5 °F 66.1 °F 29.88 in West 0.1 mph 1.0 mph 89 % 0.00 in
06:27 69.5 °F 66.4 °F 29.88 in West 1.1 mph 2.0 mph 90 % 0.00 in
06:32 69.6 °F 66.5 °F 29.89 in SSW 1.5 mph 3.5 mph 90 % 0.00 in
06:37 69.7 °F 66.6 °F 29.89 in SSW 0.1 mph 1.2 mph 90 % 0.00 in
06:42 69.9 °F 66.8 °F 29.89 in South 0.5 mph 2.3 mph 90 % 0.00 in
06:47 70.0 °F 66.9 °F 29.89 in South 0.5 mph 2.3 mph 90 % 0.00 in
06:52 70.3 °F 66.9 °F 29.89 in SW 2.2 mph 3.5 mph 89 % 0.00 in
06:57 70.7 °F 67.0 °F 29.89 in SSW 0.6 mph 2.3 mph 88 % 0.00 in
07:02 71.1 °F 67.0 °F 29.89 in SW 1.1 mph 3.5 mph 87 % 0.00 in
07:07 71.6 °F 66.8 °F 29.89 in WSW 0.3 mph 1.2 mph 85 % 0.00 in
07:12 72.1 °F 66.6 °F 29.88 in WSW 1.5 mph 3.0 mph 83 % 0.00 in
07:17 72.7 °F 66.9 °F 29.89 in SW 0.6 mph 1.2 mph 82 % 0.00 in
07:22 73.2 °F 66.7 °F 29.89 in SW 0.2 mph 3.5 mph 80 % 0.00 in
07:27 73.7 °F 66.8 °F 29.89 in SW 1.9 mph 2.3 mph 79 % 0.00 in
07:32 74.2 °F 66.5 °F 29.89 in SW 0.9 mph 2.3 mph 77 % 0.00 in
07:37 74.6 °F 66.1 °F 29.89 in West 0.9 mph 5.8 mph 75 % 0.00 in
07:42 74.9 °F 66.4 °F 29.89 in SW 2.0 mph 3.5 mph 75 % 0.00 in
07:44 75.0 °F 66.5 °F 29.89 in SW 1.2 mph 3.5 mph 75 % 0.00 in
07:49 75.3 °F 66.8 °F 29.89 in WSW 1.3 mph 3.5 mph 75 % 0.00 in
07:54 75.4 °F 66.9 °F 29.89 in WSW 3.7 mph 6.0 mph 75 % 0.00 in
07:59 75.4 °F 66.5 °F 29.89 in WSW 1.8 mph 5.8 mph 74 % 0.00 in
08:04 75.5 °F 66.2 °F 29.89 in WSW 1.1 mph 3.5 mph 73 % 0.00 in
08:09 75.6 °F 66.3 °F 29.89 in NW 1.4 mph 4.0 mph 73 % 0.00 in
08:14 75.6 °F 66.7 °F 29.89 in WNW 1.4 mph 3.5 mph 74 % 0.00 in
08:19 75.8 °F 68.1 °F 29.89 in NW 0.3 mph 1.2 mph 77 % 0.00 in
08:24 75.8 °F 68.1 °F 29.90 in NNE 3.1 mph 9.2 mph 77 % 0.00 in
08:29 75.7 °F 68.0 °F 29.89 in SSW 0.3 mph 2.3 mph 77 % 0.00 in
08:34 75.7 °F 68.0 °F 29.89 in SW 3.2 mph 4.6 mph 77 % 0.00 in
08:39 75.7 °F 67.6 °F 29.89 in WNW 0.2 mph 3.5 mph 76 % 0.00 in
08:44 75.8 °F 67.3 °F 29.89 in West 1.6 mph 4.6 mph 75 % 0.00 in
08:49 75.8 °F 66.1 °F 29.89 in SW 4.9 mph 5.8 mph 72 % 0.00 in
08:54 76.0 °F 66.3 °F 29.89 in WNW 2.0 mph 6.0 mph 72 % 0.00 in
08:59 76.1 °F 66.8 °F 29.89 in NW 0.3 mph 3.5 mph 73 % 0.00 in
09:04 76.3 °F 67.4 °F 29.88 in WNW 2.9 mph 4.6 mph 74 % 0.00 in
09:09 76.4 °F 65.9 °F 29.88 in WSW 2.0 mph 5.8 mph 70 % 0.00 in
09:14 76.6 °F 64.0 °F 29.88 in SW 3.3 mph 4.6 mph 65 % 0.00 in
09:19 76.7 °F 63.2 °F 29.88 in SW 5.2 mph 5.8 mph 63 % 0.00 in
09:24 77.0 °F 63.4 °F 29.88 in WSW 3.1 mph 4.6 mph 63 % 0.00 in
09:29 77.2 °F 64.1 °F 29.88 in West 1.4 mph 5.8 mph 64 % 0.00 in
09:34 77.4 °F 64.3 °F 29.88 in WNW 3.5 mph 4.6 mph 64 % 0.00 in
09:39 77.6 °F 64.0 °F 29.89 in West 5.1 mph 7.0 mph 63 % 0.00 in
09:44 77.9 °F 63.8 °F 29.89 in SW 3.0 mph 9.2 mph 62 % 0.00 in
09:50 78.3 °F 63.7 °F 29.89 in WNW 1.7 mph 6.9 mph 61 % 0.00 in
09:55 78.8 °F 63.7 °F 29.89 in NW 2.7 mph 5.8 mph 60 % 0.00 in
10:00 79.3 °F 63.7 °F 29.89 in West 3.5 mph 4.0 mph 59 % 0.00 in
10:05 79.5 °F 63.9 °F 29.89 in West 2.6 mph 5.8 mph 59 % 0.00 in
10:10 79.8 °F 63.7 °F 29.88 in NW 3.8 mph 7.0 mph 58 % 0.00 in
10:15 80.2 °F 63.6 °F 29.88 in SW 2.2 mph 6.0 mph 57 % 0.00 in
10:20 80.7 °F 62.5 °F 29.88 in WSW 5.3 mph 9.2 mph 54 % 0.00 in
10:25 81.4 °F 64.7 °F 29.88 in WSW 4.0 mph 5.8 mph 57 % 0.00 in
10:30 82.0 °F 64.2 °F 29.88 in SW 3.6 mph 4.6 mph 55 % 0.00 in
10:35 82.7 °F 63.8 °F 29.88 in SW 1.5 mph 3.5 mph 53 % 0.00 in
10:41 83.2 °F 63.2 °F 29.89 in SW 7.0 mph 10.0 mph 51 % 0.00 in
10:46 83.6 °F 63.0 °F 29.88 in WSW 5.0 mph 8.0 mph 50 % 0.00 in
10:51 84.0 °F 65.0 °F 29.88 in WSW 5.0 mph 8.0 mph 53 % 0.00 in
10:56 84.3 °F 65.3 °F 29.88 in WSW 2.0 mph 8.0 mph 53 % 0.00 in
11:01 84.8 °F 66.3 °F 29.88 in SW 1.2 mph 4.6 mph 54 % 0.00 in
11:06 85.1 °F 64.4 °F 29.88 in West 1.0 mph 8.0 mph 50 % 0.00 in
11:11 85.1 °F 66.0 °F 29.88 in Calm   3.0 mph 53 % 0.00 in
11:16 85.2 °F 63.9 °F 29.88 in NW 1.1 mph 2.3 mph 49 % 0.00 in
11:20 85.5 °F 65.9 °F 29.88 in NW 0.5 mph 1.2 mph 52 % 0.00 in
11:26 85.8 °F 66.7 °F 29.88 in WNW 0.8 mph 4.6 mph 53 % 0.00 in
11:31 86.1 °F 68.1 °F 29.88 in North 1.0 mph 5.0 mph 55 % 0.00 in
11:36 86.5 °F 65.7 °F 29.88 in NW 1.0 mph 6.0 mph 50 % 0.00 in
11:41 87.2 °F 66.8 °F 29.88 in WNW 2.0 mph 7.0 mph 51 % 0.00 in
11:46 87.5 °F 64.2 °F 29.88 in WNW 3.0 mph 9.0 mph 46 % 0.00 in
11:51 87.5 °F 64.2 °F 29.88 in WNW 3.0 mph 6.0 mph 46 % 0.00 in
11:56 86.9 °F 64.3 °F 29.88 in NW 3.0 mph 8.0 mph 47 % 0.00 in
12:01 86.5 °F 66.2 °F 29.88 in NW 1.9 mph 2.3 mph 51 % 0.00 in
12:06 86.3 °F 64.9 °F 29.88 in NW 2.3 mph 4.6 mph 49 % 0.00 in
12:11 86.3 °F 67.2 °F 29.88 in WNW 2.0 mph 3.5 mph 53 % 0.00 in
12:16 86.0 °F 64.0 °F 29.88 in North 2.4 mph 6.0 mph 48 % 0.00 in
12:21 86.2 °F 64.8 °F 29.88 in NW 3.1 mph 6.9 mph 49 % 0.00 in
12:26 86.5 °F 65.7 °F 29.88 in NW 0.9 mph 9.2 mph 50 % 0.00 in
12:31 86.8 °F 64.8 °F 29.87 in SSW 3.6 mph 7.0 mph 48 % 0.00 in
12:36 87.1 °F 63.8 °F 29.87 in West 2.5 mph 5.8 mph 46 % 0.00 in
12:41 87.4 °F 64.1 °F 29.87 in West 5.3 mph 9.2 mph 46 % 0.00 in
12:46 87.6 °F 64.9 °F 29.87 in WNW 3.1 mph 5.8 mph 47 % 0.00 in
12:51 88.0 °F 65.8 °F 29.86 in WNW 2.8 mph 5.8 mph 48 % 0.00 in
12:56 88.3 °F 63.6 °F 29.86 in WSW 4.6 mph 8.1 mph 44 % 0.00 in
13:01 88.4 °F 63.1 °F 29.86 in WSW 5.8 mph 9.0 mph 43 % 0.00 in
13:06 88.5 °F 65.1 °F 29.86 in WSW 3.0 mph 9.2 mph 46 % 0.00 in
13:11 88.6 °F 64.5 °F 29.85 in WNW 2.0 mph 4.6 mph 45 % 0.00 in
13:16 88.4 °F 64.4 °F 29.85 in West 1.3 mph 4.6 mph 45 % 0.00 in
13:21 88.0 °F 64.6 °F 29.85 in WSW 1.5 mph 3.5 mph 46 % 0.00 in
13:26 87.4 °F 63.5 °F 29.85 in WNW 1.0 mph 3.5 mph 45 % 0.00 in
13:31 86.8 °F 62.3 °F 29.85 in NW 7.4 mph 11.5 mph 44 % 0.00 in
13:36 86.4 °F 63.8 °F 29.85 in WNW 0.6 mph 3.5 mph 47 % 0.00 in
13:41 86.5 °F 63.3 °F 29.84 in WSW 7.2 mph 10.0 mph 46 % 0.00 in
13:46 86.7 °F 63.4 °F 29.84 in SW 2.3 mph 3.5 mph 46 % 0.00 in
13:52 87.1 °F 66.2 °F 29.84 in SW 3.4 mph 6.0 mph 50 % 0.00 in
13:57 87.1 °F 63.8 °F 29.84 in WNW 4.3 mph 6.9 mph 46 % 0.00 in
14:02 87.1 °F 63.8 °F 29.84 in SSW 2.1 mph 3.5 mph 46 % 0.00 in
14:07 87.3 °F 64.0 °F 29.83 in NNW 3.2 mph 6.9 mph 46 % 0.00 in
14:12 87.6 °F 64.9 °F 29.83 in SW 2.3 mph 6.9 mph 47 % 0.00 in
14:17 87.7 °F 65.0 °F 29.83 in WSW 3.8 mph 8.0 mph 47 % 0.00 in
14:22 87.9 °F 65.2 °F 29.83 in WSW 3.6 mph 7.0 mph 47 % 0.00 in
14:27 88.1 °F 63.4 °F 29.83 in South 5.9 mph 9.2 mph 44 % 0.00 in
14:32 88.2 °F 62.9 °F 29.83 in SW 4.9 mph 6.9 mph 43 % 0.00 in
14:37 88.3 °F 63.6 °F 29.83 in NW 1.9 mph 4.0 mph 44 % 0.00 in
14:42 88.5 °F 63.8 °F 29.83 in WNW 2.4 mph 6.9 mph 44 % 0.00 in
14:47 88.6 °F 66.4 °F 29.83 in NW 0.7 mph 2.3 mph 48 % 0.00 in
14:52 88.8 °F 64.7 °F 29.83 in SW 3.0 mph 4.6 mph 45 % 0.00 in
14:57 89.0 °F 64.9 °F 29.82 in NW 1.7 mph 9.2 mph 45 % 0.00 in
15:02 89.1 °F 63.0 °F 29.82 in SSW 4.5 mph 11.5 mph 42 % 0.00 in
15:07 89.1 °F 61.6 °F 29.82 in WSW 5.8 mph 8.1 mph 40 % 0.00 in
15:12 89.2 °F 63.8 °F 29.82 in SSW 5.7 mph 9.2 mph 43 % 0.00 in
15:17 89.2 °F 63.1 °F 29.82 in SW 3.9 mph 10.4 mph 42 % 0.00 in
15:22 89.0 °F 62.2 °F 29.82 in WSW 7.4 mph 12.7 mph 41 % 0.00 in
15:27 89.0 °F 61.5 °F 29.82 in WSW 5.2 mph 11.5 mph 40 % 0.00 in
15:32 88.9 °F 62.8 °F 29.82 in SW 3.5 mph 5.8 mph 42 % 0.00 in
15:37 88.7 °F 62.0 °F 29.82 in WNW 3.5 mph 5.8 mph 41 % 0.00 in
15:42 88.4 °F 62.4 °F 29.81 in West 2.0 mph 5.8 mph 42 % 0.00 in
15:47 88.2 °F 64.2 °F 29.82 in West 3.7 mph 8.1 mph 45 % 0.00 in
15:52 88.0 °F 64.6 °F 29.81 in SW 2.5 mph 7.0 mph 46 % 0.00 in
15:57 87.7 °F 63.1 °F 29.81 in SW 2.7 mph 8.1 mph 44 % 0.00 in
16:02 87.7 °F 62.4 °F 29.81 in WSW 3.6 mph 8.1 mph 43 % 0.00 in
16:07 87.6 °F 62.3 °F 29.81 in WSW 2.9 mph 5.8 mph 43 % 0.00 in
16:12 87.6 °F 64.3 °F 29.81 in West 1.3 mph 7.0 mph 46 % 0.00 in
16:17 87.7 °F 63.1 °F 29.82 in SSW 3.6 mph 10.0 mph 44 % 0.00 in
16:22 87.7 °F 62.4 °F 29.81 in WNW 4.2 mph 6.9 mph 43 % 0.00 in
16:27 87.7 °F 61.8 °F 29.81 in West 5.1 mph 8.1 mph 42 % 0.00 in
16:32 87.8 °F 61.9 °F 29.82 in SW 4.3 mph 6.9 mph 42 % 0.00 in
16:37 87.8 °F 62.5 °F 29.81 in West 2.1 mph 5.8 mph 43 % 0.00 in
16:42 87.8 °F 62.5 °F 29.81 in SW 3.5 mph 5.8 mph 43 % 0.00 in
16:47 87.8 °F 62.5 °F 29.81 in West 4.1 mph 6.0 mph 43 % 0.00 in
16:52 87.7 °F 61.1 °F 29.81 in WSW 3.6 mph 8.1 mph 41 % 0.00 in
16:57 87.5 °F 62.2 °F 29.81 in WSW 3.8 mph 4.6 mph 43 % 0.00 in
17:02 87.2 °F 61.3 °F 29.81 in WSW 4.4 mph 10.4 mph 42 % 0.00 in
17:07 86.9 °F 61.7 °F 29.81 in West 2.8 mph 8.1 mph 43 % 0.00 in
17:12 86.6 °F 60.8 °F 29.80 in SW 6.3 mph 10.4 mph 42 % 0.00 in
17:17 86.1 °F 61.6 °F 29.80 in SSW 1.3 mph 3.5 mph 44 % 0.00 in
17:22 85.7 °F 61.9 °F 29.81 in WSW 4.1 mph 11.5 mph 45 % 0.00 in
17:27 85.2 °F 60.8 °F 29.81 in WSW 1.2 mph 6.0 mph 44 % 0.00 in
17:32 84.7 °F 61.0 °F 29.81 in WSW 1.9 mph 5.0 mph 45 % 0.00 in
17:37 84.1 °F 60.5 °F 29.82 in SW 4.1 mph 12.7 mph 45 % 0.00 in
17:42 83.4 °F 62.2 °F 29.83 in SW 6.2 mph 16.1 mph 49 % 0.00 in
17:47 82.5 °F 62.5 °F 29.83 in South 4.6 mph 9.2 mph 51 % 0.00 in
17:52 81.8 °F 60.8 °F 29.82 in SSW 7.0 mph 10.4 mph 49 % 0.00 in
17:58 81.1 °F 60.7 °F 29.82 in SSW 4.8 mph 8.1 mph 50 % 0.00 in
18:03 80.7 °F 61.4 °F 29.82 in SW 1.2 mph 5.0 mph 52 % 0.00 in
18:08 80.3 °F 62.1 °F 29.82 in SSW 4.9 mph 9.2 mph 54 % 0.00 in
18:13 79.9 °F 61.2 °F 29.82 in SW 0.4 mph 2.3 mph 53 % 0.00 in
18:18 79.4 °F 61.8 °F 29.82 in SE 0.3 mph 2.3 mph 55 % 0.00 in
18:23 79.1 °F 62.6 °F 29.83 in SSW 0.9 mph 3.5 mph 57 % 0.00 in
18:28 78.9 °F 62.4 °F 29.83 in WSW 0.3 mph 2.3 mph 57 % 0.00 in
18:33 78.8 °F 62.8 °F 29.83 in SW 0.4 mph 3.5 mph 58 % 0.00 in
18:38 78.6 °F 63.1 °F 29.83 in Calm   2.3 mph 59 % 0.00 in
18:43 78.4 °F 63.4 °F 29.83 in Calm   1.2 mph 60 % 0.00 in
18:48 78.3 °F 63.3 °F 29.83 in WSW 0.9 mph 3.0 mph 60 % 0.00 in
18:53 78.0 °F 63.5 °F 29.83 in Calm   1.0 mph 61 % 0.00 in
18:58 77.9 °F 63.8 °F 29.83 in SW 0.3 mph 1.2 mph 62 % 0.00 in
19:03 77.8 °F 63.7 °F 29.83 in SW 0.2 mph 1.2 mph 62 % 0.00 in
19:08 77.7 °F 64.1 °F 29.83 in SW 0.4 mph 3.5 mph 63 % 0.00 in
19:13 77.5 °F 63.9 °F 29.83 in WSW 0.8 mph 3.5 mph 63 % 0.00 in
19:18 77.5 °F 63.9 °F 29.83 in WSW 2.1 mph 3.5 mph 63 % 0.00 in
19:23 77.4 °F 63.8 °F 29.83 in WSW 0.2 mph 1.2 mph 63 % 0.00 in
19:25 77.4 °F 63.8 °F 29.83 in WSW 0.4 mph 2.3 mph 63 % 0.00 in
19:29 77.4 °F 63.8 °F 29.83 in SW 1.5 mph 3.5 mph 63 % 0.00 in
19:34 77.3 °F 63.7 °F 29.83 in West 0.4 mph 2.3 mph 63 % 0.00 in
19:39 77.2 °F 63.6 °F 29.83 in West 0.1 mph 1.2 mph 63 % 0.00 in
19:44 77.2 °F 64.1 °F 29.83 in West 0.1 mph 1.2 mph 64 % 0.00 in
19:49 77.0 °F 63.9 °F 29.83 in Calm     64 % 0.00 in
19:54 76.9 °F 64.2 °F 29.83 in Calm   1.2 mph 65 % 0.00 in
19:59 76.7 °F 64.0 °F 29.83 in South 0.1 mph 2.3 mph 65 % 0.00 in
20:04 76.4 °F 64.6 °F 29.83 in SSE 0.2 mph 2.3 mph 67 % 0.00 in
20:09 76.1 °F 64.3 °F 29.83 in Calm   1.2 mph 67 % 0.00 in
20:14 75.9 °F 64.6 °F 29.83 in Calm   1.2 mph 68 % 0.00 in
20:19 75.7 °F 64.4 °F 29.83 in SSE 0.2 mph 1.2 mph 68 % 0.00 in
20:24 75.5 °F 64.6 °F 29.83 in Calm     69 % 0.00 in
20:29 75.3 °F 64.8 °F 29.84 in Calm   1.2 mph 70 % 0.00 in
20:34 75.1 °F 65.1 °F 29.84 in Calm     71 % 0.00 in
20:39 74.9 °F 65.3 °F 29.84 in Calm     72 % 0.00 in
20:44 74.6 °F 65.4 °F 29.84 in Calm     73 % 0.00 in
20:49 74.3 °F 65.1 °F 29.85 in Calm     73 % 0.00 in
20:54 74.1 °F 64.9 °F 29.85 in South 0.1 mph 1.2 mph 73 % 0.00 in
20:55 74.1 °F 65.3 °F 29.85 in Calm   1.2 mph 74 % 0.00 in
21:00 73.8 °F 65.0 °F 29.85 in SSW 0.8 mph 3.5 mph 74 % 0.00 in
21:05 73.6 °F 65.2 °F 29.85 in Calm     75 % 0.00 in
21:10 73.3 °F 64.9 °F 29.86 in WSW 0.5 mph 2.3 mph 75 % 0.00 in
21:15 73.1 °F 64.7 °F 29.85 in WSW 0.7 mph 3.5 mph 75 % 0.00 in
21:20 72.9 °F 64.9 °F 29.86 in Calm   2.3 mph 76 % 0.00 in
21:25 72.8 °F 64.4 °F 29.86 in Calm     75 % 0.00 in
21:30 72.6 °F 64.2 °F 29.86 in Calm     75 % 0.00 in
21:35 72.5 °F 64.1 °F 29.87 in Calm     75 % 0.00 in
21:40 72.4 °F 64.0 °F 29.87 in Calm   1.2 mph 75 % 0.00 in
21:45 72.2 °F 63.8 °F 29.88 in SW 3.7 mph 4.6 mph 75 % 0.00 in
21:50 72.2 °F 63.8 °F 29.88 in SW 0.6 mph 3.0 mph 75 % 0.00 in
21:55 72.2 °F 63.8 °F 29.88 in SW 0.2 mph 2.3 mph 75 % 0.00 in
22:00 72.1 °F 63.7 °F 29.88 in Calm     75 % 0.00 in
22:05 72.1 °F 63.7 °F 29.88 in SW 0.1 mph 1.2 mph 75 % 0.00 in
22:10 72.1 °F 63.4 °F 29.88 in Calm   1.2 mph 74 % 0.00 in
22:15 72.0 °F 63.3 °F 29.88 in SW 0.4 mph 1.2 mph 74 % 0.00 in
22:20 72.0 °F 63.3 °F 29.88 in SW 0.5 mph 2.3 mph 74 % 0.00 in
22:25 71.9 °F 63.2 °F 29.88 in West 0.4 mph 3.5 mph 74 % 0.00 in
22:30 71.9 °F 63.2 °F 29.88 in WSW 2.5 mph 4.0 mph 74 % 0.00 in
22:35 71.8 °F 63.1 °F 29.88 in WSW 2.3 mph 4.6 mph 74 % 0.00 in
22:40 71.7 °F 63.0 °F 29.88 in Calm     74 % 0.00 in
22:45 71.6 °F 63.3 °F 29.88 in WSW 1.8 mph 3.5 mph 75 % 0.00 in
22:50 71.5 °F 63.2 °F 29.88 in WSW 3.1 mph 4.6 mph 75 % 0.00 in
22:56 71.4 °F 63.1 °F 29.88 in WSW 1.9 mph 3.5 mph 75 % 0.00 in
23:01 71.3 °F 63.0 °F 29.88 in WSW 2.3 mph 4.0 mph 75 % 0.00 in
23:06 71.3 °F 63.0 °F 29.88 in WSW 2.0 mph 3.5 mph 75 % 0.00 in
23:11 71.3 °F 63.0 °F 29.88 in WSW 0.9 mph 2.3 mph 75 % 0.00 in
23:16 71.2 °F 62.9 °F 29.88 in WSW 1.8 mph 2.3 mph 75 % 0.00 in
23:21 71.2 °F 62.9 °F 29.89 in WSW 2.0 mph 4.0 mph 75 % 0.00 in
23:26 71.1 °F 63.1 °F 29.89 in WSW 2.0 mph 3.5 mph 76 % 0.00 in
23:31 71.1 °F 63.1 °F 29.89 in Calm     76 % 0.00 in
23:36 71.0 °F 63.1 °F 29.89 in WSW 1.0 mph 3.0 mph 76 % 0.00 in
23:41 70.9 °F 63.0 °F 29.90 in WSW 1.0 mph 3.0 mph 76 % 0.00 in
23:46 70.8 °F 62.9 °F 29.90 in Calm   2.0 mph 76 % 0.00 in
23:48 70.7 °F 62.8 °F 29.90 in WSW 0.1 mph 1.2 mph 76 % 0.00 in
23:53 70.6 °F 63.0 °F 29.90 in WSW 0.2 mph 1.2 mph 77 % 0.00 in
23:59 70.5 °F 62.9 °F 29.90 in Calm     77 % 0.00 in
Crab Meadow Weather
Compliments of Weather Underground - 3 mb

Script developed by  Jim McMurry - jmcmurry@mwt.net Adapted for the template by  Wim van der Kuil - Leuven-Template.eu

Snow: Snowflakes generally fall from the sky at speeds between one and five miles per hour.